Time;durP1;ratioP1;P1;durP2;ratioP2;P2;SDS_P1;SDS_P2;PMS_P1;PMS_P2;Temp;Humidity;BMP_temperature;BMP_pressure;BME280_temperature;BME280_humidity;BME280_pressure;Samples;Min_cycle;Max_cycle;Signal;HPM_P1;HPM_P2
2022/06/15 09:37:35;;;;;;;4.40;4.00;;;;;;;;;;6280005;22;20011;-85
2022/06/15 09:40:03;;;;;;;3.80;3.50;;;;;;;;;;6308341;22;20082;-83
2022/06/15 09:42:50;;;;;;;5.30;3.88;;;;;;;;;;6297086;22;20075;-84
2022/06/15 09:45:40;;;;;;;4.68;4.15;;;;;;;;;;6277009;22;20016;-82
2022/06/15 09:48:18;;;;;;;3.70;3.40;;;;;;;;;;6277343;22;20079;-83
2022/06/15 09:50:54;;;;;;;3.45;2.92;;;;;;;;;;6277743;22;20028;-82
2022/06/15 09:53:36;;;;;;;3.35;3.05;;;;;;;;;;6276914;22;20012;-83
2022/06/15 09:56:07;;;;;;;3.85;3.22;;;;;;;;;;6277420;22;20005;-82
2022/06/15 09:58:40;;;;;;;5.80;3.53;;;;;;;;;;6277257;22;20000;-82
2022/06/15 10:01:07;;;;;;;3.45;3.15;;;;;;;;;;6277267;22;20079;-81
2022/06/15 10:03:38;;;;;;;5.10;3.35;;;;;;;;;;6276724;22;20000;-84
2022/06/15 10:06:27;;;;;;;3.20;2.90;;;;;;;;;;6277393;22;20026;-83
2022/06/15 10:08:55;;;;;;;4.28;3.85;;;;;;;;;;6277744;22;20031;-80
2022/06/15 10:11:32;;;;;;;4.00;3.22;;;;;;;;;;6279340;22;20004;-80
2022/06/15 10:14:36;;;;;;;3.92;3.45;;;;;;;;;;6279447;22;20450;-80
2022/06/15 10:17:21;;;;;;;5.28;3.47;;;;;;;;;;6279314;22;20027;-80
2022/06/15 10:19:50;;;;;;;4.30;3.90;;;;;;;;;;6279867;22;20011;-81
2022/06/15 10:22:25;;;;;;;9.47;3.93;;;;;;;;;;6279007;22;20106;-80
2022/06/15 10:24:51;;;;;;;4.10;3.70;;;;;;;;;;6279410;22;20335;-84
2022/06/15 10:27:37;;;;;;;4.47;3.53;;;;;;;;;;6280044;22;20003;-80
2022/06/15 10:30:08;;;;;;;3.67;3.38;;;;;;;;;;6279030;22;20437;-85
2022/06/15 10:32:40;;;;;;;3.92;3.58;;;;;;;;;;6278898;22;20004;-81
2022/06/15 10:35:15;;;;;;;5.38;3.70;;;;;;;;;;6279135;22;20461;-84
2022/06/15 10:37:46;;;;;;;4.60;3.72;;;;;;;;;;6278502;22;20053;-82
2022/06/15 10:40:36;;;;;;;4.00;3.40;;;;;;;;;;6278751;22;20003;-81
2022/06/15 10:43:04;;;;;;;4.68;3.10;;;;;;;;;;6278609;22;19992;-83
2022/06/15 10:46:01;;;;;;;3.80;3.40;;;;;;;;;;6251643;22;20015;-82
2022/06/15 10:48:45;;;;;;;3.42;3.13;;;;;;;;;;6277875;22;20007;-85
2022/06/15 10:51:15;;;;;;;3.35;3.08;;;;;;;;;;6278538;22;20423;-84
2022/06/15 10:53:46;;;;;;;3.75;3.00;;;;;;;;;;6278590;22;20004;-82
2022/06/15 11:02:21;;;;;;;5.05;3.58;;;;;;;;;;6278532;22;20018;-81
2022/06/15 11:04:46;;;;;;;4.88;3.03;;;;;;;;;;6278483;22;20008;-85
2022/06/15 11:07:29;;;;;;;4.13;3.45;;;;;;;;;;6278422;22;20430;-81
2022/06/15 11:09:54;;;;;;;5.50;3.40;;;;;;;;;;6278805;22;20003;-86
2022/06/15 11:12:31;;;;;;;5.00;3.03;;;;;;;;;;6278665;22;20059;-88
2022/06/15 11:15:00;;;;;;;3.85;3.40;;;;;;;;;;6278491;22;20086;-89
2022/06/15 11:21:03;;;;;;;3.95;3.25;;;;;;;;;;6278132;22;20050;-81
2022/06/15 11:23:54;;;;;;;3.40;2.80;;;;;;;;;;6245356;22;20011;-81
2022/06/15 11:29:42;;;;;;;3.47;3.10;;;;;;;;;;6278754;22;20015;-83
2022/06/15 11:32:31;;;;;;;4.40;3.17;;;;;;;;;;6278933;22;20082;-90
2022/06/15 11:35:12;;;;;;;4.25;3.28;;;;;;;;;;6278851;22;20031;-85
2022/06/15 11:37:47;;;;;;;3.83;3.45;;;;;;;;;;6278637;22;20069;-88
2022/06/15 11:40:47;;;;;;;5.28;3.03;;;;;;;;;;6251834;22;20095;-83
2022/06/15 11:43:24;;;;;;;4.35;2.90;;;;;;;;;;6251317;22;20451;-90
2022/06/15 17:53:39;;;;;;;8.15;7.35;;;;;;;;;;6171762;23;1338185;-82
2022/06/15 17:56:05;;;;;;;9.43;7.25;;;;;;;;;;6217023;23;20345;-90
2022/06/15 17:58:31;;;;;;;6.90;6.22;;;;;;;;;;6216706;23;20032;-86
2022/06/15 18:00:56;;;;;;;8.15;7.25;;;;;;;;;;6194243;23;20005;-82
2022/06/15 18:03:22;;;;;;;7.13;6.53;;;;;;;;;;6186616;23;20009;-82
2022/06/15 18:05:47;;;;;;;9.23;6.88;;;;;;;;;;6185680;23;20057;-86
2022/06/15 18:08:13;;;;;;;7.78;7.10;;;;;;;;;;6186800;23;20005;-87
2022/06/15 18:10:39;;;;;;;8.73;7.93;;;;;;;;;;6186460;23;20349;-84
2022/06/15 18:13:04;;;;;;;8.75;7.93;;;;;;;;;;6186694;23;20459;-86
2022/06/15 18:15:31;;;;;;;7.95;7.22;;;;;;;;;;6184908;23;20012;-84
2022/06/15 18:17:58;;;;;;;7.30;6.70;;;;;;;;;;6186893;23;20008;-84
2022/06/15 18:20:28;;;;;;;7.90;7.20;;;;;;;;;;6186484;23;20009;-84
2022/06/15 18:22:55;;;;;;;7.63;6.93;;;;;;;;;;6185001;23;20082;-84
2022/06/15 18:25:20;;;;;;;7.30;6.60;;;;;;;;;;6186442;23;20028;-85
2022/06/15 18:27:46;;;;;;;7.57;6.90;;;;;;;;;;6184946;23;20012;-84
2022/06/15 18:30:14;;;;;;;7.82;6.78;;;;;;;;;;6186264;23;20005;-86
2022/06/15 18:32:43;;;;;;;8.00;6.60;;;;;;;;;;6186331;23;20001;-83
2022/06/15 18:35:16;;;;;;;8.63;7.30;;;;;;;;;;6186346;23;20001;-84
2022/06/15 18:37:44;;;;;;;8.77;7.88;;;;;;;;;;6186243;23;20001;-82
2022/06/15 18:40:14;;;;;;;7.25;6.20;;;;;;;;;;6186575;23;20001;-80
2022/06/15 18:42:40;;;;;;;;;;;;;;;;;;6187180;23;20001;-82
2022/06/15 18:47:50;;;;;;;8.20;7.50;;;;;;;;;;6186237;23;20012;-84
2022/06/15 18:50:20;;;;;;;7.80;7.10;;;;;;;;;;6186347;23;20072;-85
2022/06/15 18:52:48;;;;;;;7.57;6.60;;;;;;;;;;6186052;23;19997;-86
2022/06/15 18:55:17;;;;;;;7.50;6.80;;;;;;;;;;6186128;23;20064;-84
2022/06/15 18:57:45;;;;;;;8.20;7.07;;;;;;;;;;6186388;23;20009;-84
2022/06/15 19:00:15;;;;;;;7.35;6.85;;;;;;;;;;6186319;23;20001;-85
2022/06/15 19:02:43;;;;;;;7.38;6.57;;;;;;;;;;6186450;23;20009;-83
2022/06/15 19:05:09;;;;;;;7.40;6.80;;;;;;;;;;6186146;23;20333;-83
2022/06/15 19:07:38;;;;;;;7.90;7.20;;;;;;;;;;6186469;23;20024;-83
2022/06/15 19:10:04;;;;;;;8.73;7.90;;;;;;;;;;6186520;23;20425;-84
2022/06/15 19:12:30;;;;;;;8.73;7.90;;;;;;;;;;6186503;23;20072;-83
2022/06/15 19:14:55;;;;;;;8.40;7.60;;;;;;;;;;6184499;23;20005;-83
2022/06/15 19:17:21;;;;;;;7.80;7.10;;;;;;;;;;6186344;23;20016;-82
2022/06/15 19:19:48;;;;;;;8.43;7.53;;;;;;;;;;6186058;23;20005;-83
2022/06/15 19:22:14;;;;;;;9.68;7.10;;;;;;;;;;6186281;23;20056;-83
2022/06/15 19:24:47;;;;;;;8.50;7.20;;;;;;;;;;6185999;23;20008;-82
2022/06/15 19:27:21;;;;;;;7.93;7.13;;;;;;;;;;6184491;23;20433;-81
2022/06/15 19:29:51;;;;;;;8.13;7.15;;;;;;;;;;6186421;23;20320;-83
2022/06/15 19:32:27;;;;;;;9.18;7.38;;;;;;;;;;6184468;23;20005;-83
2022/06/15 19:34:53;;;;;;;8.52;7.65;;;;;;;;;;6186268;23;20006;-83
2022/06/15 19:37:19;;;;;;;8.20;6.95;;;;;;;;;;6184613;23;20091;-86
2022/06/15 19:39:44;;;;;;;8.15;7.55;;;;;;;;;;6184734;23;20480;-86
2022/06/15 19:42:11;;;;;;;9.45;6.72;;;;;;;;;;6184550;23;20013;-85
2022/06/15 19:44:37;;;;;;;8.32;7.50;;;;;;;;;;6185194;23;20107;-85
2022/06/15 19:47:04;;;;;;;8.38;7.57;;;;;;;;;;6187059;23;20013;-85
2022/06/15 19:49:29;;;;;;;7.80;7.07;;;;;;;;;;6186552;23;20067;-86
2022/06/15 19:51:55;;;;;;;8.32;7.55;;;;;;;;;;6184822;23;20479;-80
2022/06/15 19:54:21;;;;;;;10.75;7.30;;;;;;;;;;6186308;23;20143;-80
2022/06/15 19:56:50;;;;;;;7.72;7.03;;;;;;;;;;6186495;23;20012;-80
2022/06/15 19:59:15;;;;;;;8.55;7.15;;;;;;;;;;6186072;23;20001;-84
2022/06/15 20:01:41;;;;;;;7.60;6.95;;;;;;;;;;6185929;23;20055;-83
2022/06/15 20:04:07;;;;;;;8.75;7.53;;;;;;;;;;6185099;23;20016;-83
2022/06/15 20:06:33;;;;;;;9.30;7.72;;;;;;;;;;6188017;23;20428;-83
2022/06/15 20:08:59;;;;;;;8.35;7.53;;;;;;;;;;6187865;23;20007;-81
2022/06/15 20:11:24;;;;;;;7.68;6.85;;;;;;;;;;6187834;23;20337;-86
2022/06/15 20:13:49;;;;;;;9.18;7.50;;;;;;;;;;6188181;23;20311;-85
2022/06/15 20:16:15;;;;;;;7.35;6.70;;;;;;;;;;6188058;23;20011;-82
2022/06/15 20:18:40;;;;;;;8.18;7.43;;;;;;;;;;6187629;23;20463;-80
2022/06/15 20:21:08;;;;;;;9.38;8.25;;;;;;;;;;6187609;23;20005;-80
2022/06/15 20:23:39;;;;;;;7.88;7.10;;;;;;;;;;6189010;23;20056;-80
2022/06/15 20:26:09;;;;;;;7.95;7.25;;;;;;;;;;6216591;23;20493;-78
2022/06/15 20:28:45;;;;;;;7.93;7.13;;;;;;;;;;6216930;23;20432;-83
2022/06/15 20:31:18;;;;;;;8.35;7.18;;;;;;;;;;6217523;23;20384;-79
2022/06/15 20:33:48;;;;;;;8.48;7.47;;;;;;;;;;6217837;23;20003;-82
2022/06/15 20:36:14;;;;;;;8.82;7.72;;;;;;;;;;6217659;23;20305;-82
2022/06/15 20:38:40;;;;;;;8.70;7.82;;;;;;;;;;6217380;23;20143;-79
2022/06/15 20:41:07;;;;;;;8.25;7.45;;;;;;;;;;6217477;23;20420;-80
2022/06/15 20:43:33;;;;;;;7.90;7.30;;;;;;;;;;6217201;23;20134;-77
2022/06/15 20:46:03;;;;;;;8.23;7.53;;;;;;;;;;6217271;23;20004;-79
2022/06/15 20:48:31;;;;;;;8.30;7.60;;;;;;;;;;6217067;23;20012;-81
2022/06/15 20:50:57;;;;;;;8.30;7.63;;;;;;;;;;6218331;23;20001;-79
2022/06/15 20:53:23;;;;;;;8.13;7.53;;;;;;;;;;6217378;23;20028;-77
2022/06/15 20:58:34;;;;;;;9.60;8.80;;;;;;;;;;6217132;23;20020;-79
2022/06/15 21:00:59;;;;;;;8.68;7.88;;;;;;;;;;6217112;23;20008;-81
2022/06/15 21:03:25;;;;;;;7.93;7.22;;;;;;;;;;6217047;23;20005;-80
2022/06/15 21:05:50;;;;;;;8.10;7.30;;;;;;;;;;6217428;23;20359;-79
2022/06/15 21:08:16;;;;;;;8.32;7.63;;;;;;;;;;6190390;23;20328;-85
